createdAt,value
2019-01-25T00:00:14.263Z,101375.78
2019-01-25T00:01:15.474Z,101377.95
2019-01-25T00:02:16.589Z,101380.16
2019-01-25T00:03:17.805Z,101382.83
2019-01-25T00:04:19.030Z,101377.12
2019-01-25T00:05:20.282Z,101379.28
2019-01-25T00:06:21.400Z,101379.28
2019-01-25T00:07:22.508Z,101387.82
2019-01-25T00:08:23.619Z,101377.12
2019-01-25T00:09:24.853Z,101379.80
2019-01-25T00:10:25.984Z,101378.93
2019-01-25T00:11:27.088Z,101380.77
2019-01-25T00:12:28.201Z,101375.89
2019-01-25T00:13:29.316Z,101376.25
2019-01-25T00:14:30.541Z,101379.44
2019-01-25T00:15:31.788Z,101379.91
2019-01-25T00:16:33.004Z,101373.22
2019-01-25T00:17:34.221Z,101369.72
2019-01-25T00:18:35.432Z,101376.41
2019-01-25T00:19:36.615Z,101375.06
2019-01-25T00:20:37.736Z,101366.17
2019-01-25T00:21:38.850Z,101368.84
2019-01-25T00:22:40.064Z,101370.70
2019-01-25T00:23:41.177Z,101366.17
2019-01-25T00:24:42.388Z,101372.39
2019-01-25T00:25:43.805Z,101372.86
2019-01-25T00:26:44.918Z,101369.83
2019-01-25T00:27:46.028Z,101366.69
2019-01-25T00:28:47.266Z,101364.01
2019-01-25T00:29:48.365Z,101365.34
2019-01-25T00:30:49.484Z,101359.13
2019-01-25T00:31:50.606Z,101356.96
2019-01-25T00:32:51.721Z,101363.14
2019-01-25T00:33:53.203Z,101362.78
2019-01-25T00:34:54.318Z,101362.31
2019-01-25T00:35:55.547Z,101364.98
2019-01-25T00:36:56.700Z,101357.94
2019-01-25T00:37:57.820Z,101359.64
2019-01-25T00:38:58.933Z,101356.60
2019-01-25T00:40:06.069Z,101354.76
2019-01-25T00:41:03.406Z,101360.26
2019-01-25T00:42:04.518Z,101358.92
2019-01-25T00:43:05.630Z,101357.23
2019-01-25T00:44:06.841Z,101358.92
2019-01-25T00:45:09.756Z,101361.09
2019-01-25T00:46:10.886Z,101362.58
2019-01-25T00:47:11.996Z,101355.02
2019-01-25T00:48:13.115Z,101358.92
2019-01-25T00:49:14.238Z,101360.26
2019-01-25T00:50:21.328Z,101349.11
2019-01-25T00:51:22.477Z,101356.88
2019-01-25T00:52:23.588Z,101350.03
2019-01-25T00:53:24.700Z,101354.55
2019-01-25T00:54:25.914Z,101354.91
2019-01-25T00:55:27.036Z,101351.87
2019-01-25T00:56:28.359Z,101353.57
2019-01-25T00:57:29.475Z,101358.56
2019-01-25T00:58:30.583Z,101351.87
2019-01-25T00:59:31.691Z,101346.53
2019-01-25T01:00:32.807Z,101350.54
2019-01-25T01:01:33.964Z,101357.59
2019-01-25T01:02:35.078Z,101351.87
2019-01-25T01:03:36.185Z,101351.37
2019-01-25T01:04:37.300Z,101351.02
2019-01-25T01:05:38.721Z,101353.22
2019-01-25T01:06:39.840Z,101351.87
2019-01-25T01:07:40.954Z,101353.22
2019-01-25T01:08:42.162Z,101358.05
2019-01-25T01:09:43.268Z,101354.55
2019-01-25T01:10:44.490Z,101353.69
2019-01-25T01:11:45.647Z,101354.55
2019-01-25T01:12:47.059Z,101349.20
2019-01-25T01:13:48.169Z,101349.20
2019-01-25T01:14:49.283Z,101352.86
2019-01-25T01:15:50.396Z,101351.02
2019-01-25T01:16:51.733Z,101352.50
2019-01-25T01:17:52.934Z,101351.16
2019-01-25T01:18:54.044Z,101346.80
2019-01-25T01:19:55.160Z,101350.80
2019-01-25T01:20:56.276Z,101343.61
2019-01-25T01:21:57.399Z,101348.13
2019-01-25T01:22:58.508Z,101342.78
2019-01-25T01:23:59.620Z,101346.44
2019-01-25T01:25:00.838Z,101346.91
2019-01-25T01:26:01.947Z,101350.80
2019-01-25T01:27:03.083Z,101345.09
2019-01-25T01:28:04.296Z,101346.44
2019-01-25T01:29:05.521Z,101349.47
2019-01-25T01:30:10.232Z,101350.80
2019-01-25T01:31:11.343Z,101353.48
2019-01-25T01:32:12.496Z,101352.14
2019-01-25T01:33:13.610Z,101351.28
2019-01-25T01:34:14.827Z,101346.80
2019-01-25T01:35:16.053Z,101353.13
2019-01-25T01:36:17.165Z,101346.91
2019-01-25T01:37:18.368Z,101347.41
2019-01-25T01:38:19.483Z,101351.43
2019-01-25T01:39:20.595Z,101347.41
2019-01-25T01:40:22.628Z,101354.46
2019-01-25T01:41:23.744Z,101350.09
2019-01-25T01:42:24.898Z,101348.75
2019-01-25T01:43:26.113Z,101348.75
2019-01-25T01:44:27.333Z,101348.40
2019-01-25T01:45:28.439Z,101349.73
2019-01-25T01:46:29.548Z,101355.09
2019-01-25T01:47:30.700Z,101353.36
2019-01-25T01:48:31.828Z,101349.34
2019-01-25T01:49:32.958Z,101351.66
2019-01-25T01:50:34.177Z,101350.83
2019-01-25T01:51:35.290Z,101349.13
2019-01-25T01:52:36.416Z,101346.94
2019-01-25T01:53:37.533Z,101345.23
2019-01-25T01:54:38.643Z,101347.56
2019-01-25T01:55:39.752Z,101343.19
2019-01-25T01:56:40.860Z,101348.69
2019-01-25T01:57:42.015Z,101342.47
2019-01-25T01:58:43.129Z,101343.45
2019-01-25T01:59:44.247Z,101352.45
2019-01-25T02:00:45.356Z,101351.12
2019-01-25T02:01:46.573Z,101352.45
2019-01-25T02:02:47.795Z,101345.77
2019-01-25T02:03:48.909Z,101345.05
2019-01-25T02:04:50.026Z,101351.27
2019-01-25T02:05:51.138Z,101350.91
2019-01-25T02:06:52.809Z,101347.38
2019-01-25T02:07:54.132Z,101347.02
2019-01-25T02:08:55.354Z,101351.38
2019-01-25T02:09:56.471Z,101345.20
2019-01-25T02:10:57.693Z,101348.35
2019-01-25T02:11:58.804Z,101348.35
2019-01-25T02:12:59.932Z,101344.48
2019-01-25T02:14:01.148Z,101346.66
2019-01-25T02:15:05.368Z,101346.19
2019-01-25T02:16:06.589Z,101341.30
2019-01-25T02:17:07.701Z,101347.16
2019-01-25T02:18:08.824Z,101349.33
2019-01-25T02:19:10.043Z,101346.80
2019-01-25T02:20:14.863Z,101346.30
2019-01-25T02:21:16.081Z,101343.62
2019-01-25T02:22:17.188Z,101347.64
2019-01-25T02:23:18.315Z,101344.96
2019-01-25T02:24:19.429Z,101347.28
2019-01-25T02:25:20.740Z,101350.81
2019-01-25T02:26:21.862Z,101345.94
2019-01-25T02:27:23.083Z,101352.98
2019-01-25T02:28:24.202Z,101345.47
2019-01-25T02:29:25.313Z,101354.83
2019-01-25T02:30:26.724Z,101348.14
2019-01-25T02:31:27.843Z,101346.80
2019-01-25T02:32:28.952Z,101348.97
2019-01-25T02:33:30.088Z,101350.31
2019-01-25T02:34:31.201Z,101338.18
2019-01-25T02:35:32.320Z,101342.80
2019-01-25T02:36:33.532Z,101339.25
2019-01-25T02:37:34.656Z,101340.12
2019-01-25T02:38:35.913Z,101343.16
2019-01-25T02:39:37.166Z,101339.61
2019-01-25T02:40:38.804Z,101345.83
2019-01-25T02:41:40.577Z,101340.48
2019-01-25T02:42:41.686Z,101339.61
2019-01-25T02:43:43.063Z,101338.27
2019-01-25T02:44:44.176Z,101339.97
2019-01-25T02:45:45.294Z,101338.27
2019-01-25T02:46:46.413Z,101346.80
2019-01-25T02:47:47.826Z,101341.30
2019-01-25T02:48:48.973Z,101339.14
2019-01-25T02:49:50.102Z,101341.81
2019-01-25T02:50:51.221Z,101342.64
2019-01-25T02:51:52.437Z,101343.62
2019-01-25T02:52:53.546Z,101337.80
2019-01-25T02:53:54.675Z,101339.14
2019-01-25T02:54:55.794Z,101342.64
2019-01-25T02:55:56.908Z,101342.64
2019-01-25T02:56:58.128Z,101332.92
2019-01-25T02:57:59.243Z,101337.30
2019-01-25T02:59:00.396Z,101335.13
2019-01-25T03:00:03.413Z,101338.63
2019-01-25T03:01:04.520Z,101340.33
2019-01-25T03:02:05.833Z,101339.50
2019-01-25T03:03:06.949Z,101339.50
2019-01-25T03:04:08.205Z,101334.98
2019-01-25T03:05:09.916Z,101336.83
2019-01-25T03:06:11.128Z,101331.95
2019-01-25T03:07:12.352Z,101340.33
2019-01-25T03:08:13.570Z,101335.96
2019-01-25T03:09:14.865Z,101334.63
2019-01-25T03:10:17.517Z,101333.64
2019-01-25T03:11:18.573Z,101330.13
2019-01-25T03:12:19.688Z,101334.63
2019-01-25T03:13:20.803Z,101334.98
2019-01-25T03:14:22.061Z,101336.31
2019-01-25T03:15:24.586Z,101336.31
2019-01-25T03:16:25.688Z,101330.25
2019-01-25T03:17:26.900Z,101334.98
2019-01-25T03:18:28.007Z,101335.13
2019-01-25T03:19:29.233Z,101333.28
2019-01-25T03:20:30.346Z,101333.28
2019-01-25T03:21:31.465Z,101332.45
2019-01-25T03:22:32.582Z,101334.63
2019-01-25T03:23:33.701Z,101331.11
2019-01-25T03:24:34.857Z,101334.98
2019-01-25T03:25:36.070Z,101331.11
2019-01-25T03:26:37.180Z,101329.27
2019-01-25T03:27:38.292Z,101326.95
2019-01-25T03:28:39.413Z,101330.97
2019-01-25T03:29:40.564Z,101326.95
2019-01-25T03:30:41.750Z,101332.30
2019-01-25T03:31:42.861Z,101335.84
2019-01-25T03:32:43.975Z,101336.67
2019-01-25T03:33:45.084Z,101330.97
2019-01-25T03:34:46.239Z,101336.67
2019-01-25T03:35:47.356Z,101335.34
2019-01-25T03:36:48.472Z,101333.88
2019-01-25T03:37:49.928Z,101331.33
2019-01-25T03:38:51.053Z,101334.00
2019-01-25T03:39:52.185Z,101334.86
2019-01-25T03:40:55.326Z,101331.69
2019-01-25T03:41:56.307Z,101334.86
2019-01-25T03:42:57.417Z,101327.31
2019-01-25T03:43:58.547Z,101330.49
2019-01-25T03:44:59.673Z,101331.69
2019-01-25T03:46:00.778Z,101327.31
2019-01-25T03:47:01.892Z,101327.67
2019-01-25T03:48:04.416Z,101327.31
2019-01-25T03:49:06.040Z,101324.64
2019-01-25T03:50:16.377Z,101327.67
2019-01-25T03:51:17.493Z,101325.50
2019-01-25T03:52:18.606Z,101325.50
2019-01-25T03:53:19.717Z,101321.48
2019-01-25T03:54:20.830Z,101324.64
2019-01-25T03:55:22.251Z,101324.28
2019-01-25T03:56:24.368Z,101318.93
2019-01-25T03:57:25.503Z,101324.28
2019-01-25T03:58:26.615Z,101328.80
2019-01-25T03:59:27.837Z,101325.27
2019-01-25T04:00:29.493Z,101320.77
2019-01-25T04:01:30.614Z,101321.25
2019-01-25T04:02:31.830Z,101323.92
2019-01-25T04:03:32.933Z,101321.25
2019-01-25T04:04:34.054Z,101319.91
2019-01-25T04:05:35.457Z,101318.93
2019-01-25T04:06:36.668Z,101315.90
2019-01-25T04:07:37.782Z,101317.23
2019-01-25T04:08:38.994Z,101316.77
2019-01-25T04:09:40.105Z,101311.89
2019-01-25T04:10:41.251Z,101310.19
2019-01-25T04:11:45.711Z,101317.23
2019-01-25T04:12:46.808Z,101319.08
2019-01-25T04:13:47.920Z,101310.70
2019-01-25T04:14:49.038Z,101314.20
2019-01-25T04:15:50.289Z,101325.27
2019-01-25T04:16:51.405Z,101319.91
2019-01-25T04:17:52.567Z,101316.41
2019-01-25T04:18:53.774Z,101314.20
2019-01-25T04:19:54.892Z,101312.39
2019-01-25T04:20:56.011Z,101315.90
2019-01-25T04:21:57.139Z,101310.55
2019-01-25T04:22:58.235Z,101314.09
2019-01-25T04:23:59.344Z,101306.54
2019-01-25T04:25:00.467Z,101301.70
2019-01-25T04:26:01.618Z,101301.19
2019-01-25T04:27:03.024Z,101301.19
2019-01-25T04:28:04.435Z,101298.52
2019-01-25T04:29:05.652Z,101302.17
2019-01-25T04:30:21.584Z,101304.37
2019-01-25T04:31:22.708Z,101298.66
2019-01-25T04:32:23.817Z,101300.84
2019-01-25T04:33:25.035Z,101302.67
2019-01-25T04:34:26.148Z,101301.34
2019-01-25T04:35:27.261Z,101295.13
2019-01-25T04:36:28.414Z,101296.97
2019-01-25T04:37:29.551Z,101304.13
2019-01-25T04:38:30.673Z,101296.11
2019-01-25T04:39:31.790Z,101297.80
2019-01-25T04:40:33.041Z,101296.11
2019-01-25T04:41:34.172Z,101297.95
2019-01-25T04:42:35.695Z,101298.78
2019-01-25T04:43:36.912Z,101294.77
2019-01-25T04:44:38.028Z,101293.44
2019-01-25T04:45:39.143Z,101291.73
2019-01-25T04:46:40.295Z,101298.78
2019-01-25T04:47:41.505Z,101288.95
2019-01-25T04:48:42.618Z,101291.11
2019-01-25T04:49:43.745Z,101298.16
2019-01-25T04:50:44.877Z,101288.95
2019-01-25T04:51:46.028Z,101293.31
2019-01-25T04:52:47.342Z,101295.13
2019-01-25T04:53:48.557Z,101293.67
2019-01-25T04:54:49.674Z,101289.66
2019-01-25T04:55:50.785Z,101287.97
2019-01-25T04:56:51.944Z,101291.47
2019-01-25T04:57:53.040Z,101290.14
2019-01-25T04:58:54.152Z,101293.67
2019-01-25T04:59:55.274Z,101292.34
2019-01-25T05:01:01.789Z,101290.14
2019-01-25T05:02:03.042Z,101289.66
2019-01-25T05:03:04.356Z,101288.80
2019-01-25T05:04:05.678Z,101291.47
2019-01-25T05:05:07.202Z,101290.14
2019-01-25T05:06:08.425Z,101290.14
2019-01-25T05:07:09.661Z,101287.61
2019-01-25T05:08:13.466Z,101287.10
2019-01-25T05:09:14.669Z,101285.77
2019-01-25T05:10:15.916Z,101281.75
2019-01-25T05:11:19.990Z,101285.77
2019-01-25T05:12:20.357Z,101287.10
2019-01-25T05:13:22.014Z,101283.45
2019-01-25T05:14:23.134Z,101281.75
2019-01-25T05:15:24.245Z,101283.45
2019-01-25T05:16:25.473Z,101277.74
2019-01-25T05:17:26.614Z,101279.23
2019-01-25T05:18:27.719Z,101276.56
2019-01-25T05:19:34.356Z,101281.40
2019-01-25T05:20:35.466Z,101284.43
2019-01-25T05:21:36.588Z,101281.40
2019-01-25T05:22:37.748Z,101279.70
2019-01-25T05:23:38.957Z,101280.69
2019-01-25T05:24:40.177Z,101285.05
2019-01-25T05:25:41.284Z,101283.72
2019-01-25T05:26:42.397Z,101287.38
2019-01-25T05:27:43.784Z,101281.66
2019-01-25T05:28:44.903Z,101279.34
2019-01-25T05:29:49.317Z,101286.03
2019-01-25T05:30:56.541Z,101284.34
2019-01-25T05:32:02.760Z,101287.38
2019-01-25T05:33:04.050Z,101284.34
2019-01-25T05:34:05.153Z,101282.02
2019-01-25T05:35:06.274Z,101283.36
2019-01-25T05:36:07.489Z,101288.34
2019-01-25T05:37:10.712Z,101287.02
2019-01-25T05:38:11.832Z,101289.69
2019-01-25T05:39:12.964Z,101287.02
2019-01-25T05:40:23.427Z,101288.00
2019-01-25T05:41:28.553Z,101294.68
2019-01-25T05:42:27.662Z,101288.00
2019-01-25T05:43:36.863Z,101289.69
2019-01-25T05:44:38.257Z,101293.34
2019-01-25T05:45:42.078Z,101294.68
2019-01-25T05:46:43.196Z,101297.35
2019-01-25T05:47:44.413Z,101293.45
2019-01-25T05:48:45.532Z,101292.98
2019-01-25T05:49:46.664Z,101295.66
2019-01-25T05:50:47.802Z,101292.62
2019-01-25T05:51:49.114Z,101295.66
2019-01-25T05:52:50.226Z,101295.66
2019-01-25T05:53:51.858Z,101292.98
2019-01-25T05:54:52.969Z,101298.34
2019-01-25T05:55:54.090Z,101294.68
2019-01-25T05:56:55.222Z,101294.33
2019-01-25T05:58:00.796Z,101296.48
2019-01-25T05:59:01.925Z,101287.64
2019-01-25T06:00:08.565Z,101293.34
2019-01-25T06:01:09.673Z,101301.01
2019-01-25T06:02:10.792Z,101289.45
2019-01-25T06:03:13.817Z,101296.64
2019-01-25T06:04:14.961Z,101297.11
2019-01-25T06:05:16.271Z,101292.27
2019-01-25T06:06:17.485Z,101299.78
2019-01-25T06:07:24.099Z,101302.81
2019-01-25T06:08:32.028Z,101300.65
2019-01-25T06:09:33.151Z,101303.17
2019-01-25T06:10:34.272Z,101299.05
2019-01-25T06:11:37.383Z,101299.77
2019-01-25T06:12:38.496Z,101305.83
2019-01-25T06:13:39.611Z,101306.06
2019-01-25T06:14:40.764Z,101298.25
2019-01-25T06:15:41.886Z,101295.66
2019-01-25T06:16:42.999Z,101297.23
2019-01-25T06:17:44.197Z,101303.51
2019-01-25T06:18:45.358Z,101307.14
2019-01-25T06:19:46.532Z,101301.40
2019-01-25T06:20:56.036Z,101308.53
2019-01-25T06:21:57.154Z,101298.74
2019-01-25T06:22:58.265Z,101302.37
2019-01-25T06:23:59.485Z,101305.84
2019-01-25T06:25:00.747Z,101304.31
2019-01-25T06:26:01.854Z,101300.73
2019-01-25T06:27:03.265Z,101303.05
2019-01-25T06:28:05.483Z,101303.84
2019-01-25T06:29:06.597Z,101301.95
2019-01-25T06:30:13.332Z,101301.63
2019-01-25T06:31:17.037Z,101297.06
2019-01-25T06:32:18.150Z,101293.19
2019-01-25T06:33:19.466Z,101296.17
2019-01-25T06:34:20.600Z,101293.45
2019-01-25T06:35:21.740Z,101292.73
2019-01-25T06:36:22.856Z,101296.69
2019-01-25T06:37:24.064Z,101300.50
2019-01-25T06:38:25.177Z,101302.27
2019-01-25T06:39:26.293Z,101298.66
2019-01-25T06:40:27.568Z,101291.91
2019-01-25T06:41:28.687Z,101291.02
2019-01-25T06:42:29.809Z,101290.09
2019-01-25T06:43:31.008Z,101291.37
2019-01-25T06:44:32.125Z,101292.42
2019-01-25T06:45:33.250Z,101295.52
2019-01-25T06:46:34.469Z,101291.72
2019-01-25T06:47:35.579Z,101293.59
2019-01-25T06:48:36.692Z,101295.00
2019-01-25T06:49:37.916Z,101297.39
2019-01-25T06:50:39.075Z,101289.06
2019-01-25T06:51:40.184Z,101290.11
2019-01-25T06:52:41.305Z,101291.67
2019-01-25T06:53:42.422Z,101295.92
2019-01-25T06:54:43.539Z,101296.11
2019-01-25T06:55:44.831Z,101292.30
2019-01-25T06:56:45.947Z,101292.14
2019-01-25T06:57:48.966Z,101293.83
2019-01-25T06:58:54.992Z,101292.70
2019-01-25T06:59:56.109Z,101286.34
2019-01-25T07:00:59.242Z,101297.27
2019-01-25T07:02:02.289Z,101289.92
2019-01-25T07:03:03.597Z,101295.16
2019-01-25T07:04:05.299Z,101300.88
2019-01-25T07:05:07.627Z,101293.66
2019-01-25T07:06:08.752Z,101285.89
2019-01-25T07:07:11.773Z,101293.52
2019-01-25T07:08:14.783Z,101296.08
2019-01-25T07:09:15.898Z,101295.56
2019-01-25T07:10:20.451Z,101298.11
2019-01-25T07:11:21.577Z,101297.25
2019-01-25T07:12:22.800Z,101303.83
2019-01-25T07:13:24.020Z,101298.11
2019-01-25T07:14:25.141Z,101301.63
2019-01-25T07:15:26.260Z,101299.80
2019-01-25T07:16:27.395Z,101299.80
2019-01-25T07:17:28.600Z,101294.92
2019-01-25T07:18:32.765Z,101301.98
2019-01-25T07:19:33.873Z,101301.98
2019-01-25T07:20:35.096Z,101297.95
2019-01-25T07:21:36.224Z,101292.53
2019-01-25T07:22:37.336Z,101299.64
2019-01-25T07:23:38.448Z,101299.16
2019-01-25T07:24:39.561Z,101301.33
2019-01-25T07:25:40.668Z,101299.29
2019-01-25T07:26:41.821Z,101297.47
2019-01-25T07:27:42.939Z,101298.81
2019-01-25T07:28:44.050Z,101296.95
2019-01-25T07:29:45.281Z,101302.33
2019-01-25T07:30:46.524Z,101299.99
2019-01-25T07:31:47.619Z,101299.64
2019-01-25T07:32:48.733Z,101305.36
2019-01-25T07:33:49.847Z,101297.31
2019-01-25T07:34:50.966Z,101299.00
2019-01-25T07:35:52.103Z,101300.34
2019-01-25T07:36:53.329Z,101298.17
2019-01-25T07:37:54.548Z,101303.02
2019-01-25T07:38:55.653Z,101304.71
2019-01-25T07:39:56.957Z,101299.00
2019-01-25T07:40:58.082Z,101303.89
2019-01-25T07:42:02.135Z,101300.69
2019-01-25T07:43:02.351Z,101295.84
2019-01-25T07:44:03.461Z,101300.69
2019-01-25T07:45:07.669Z,101287.78
2019-01-25T07:46:08.780Z,101293.98
2019-01-25T07:47:09.907Z,101305.06
2019-01-25T07:48:11.133Z,101301.55
2019-01-25T07:49:12.788Z,101295.67
2019-01-25T07:50:14.009Z,101295.67
2019-01-25T07:51:15.153Z,101297.36
2019-01-25T07:52:16.310Z,101295.67
2019-01-25T07:53:17.433Z,101298.87
2019-01-25T07:54:18.549Z,101301.39
2019-01-25T07:55:19.755Z,101301.03
2019-01-25T07:56:20.998Z,101293.84
2019-01-25T07:57:22.120Z,101297.36
2019-01-25T07:58:23.409Z,101298.00
2019-01-25T07:59:24.666Z,101300.21
2019-01-25T08:00:25.879Z,101292.64
2019-01-25T08:01:27.097Z,101298.00
2019-01-25T08:02:28.253Z,101302.55
2019-01-25T08:03:29.412Z,101296.66
2019-01-25T08:04:30.539Z,101294.49
2019-01-25T08:05:31.676Z,101295.32
2019-01-25T08:06:32.784Z,101297.66
2019-01-25T08:07:33.925Z,101293.63
2019-01-25T08:08:35.137Z,101296.31
2019-01-25T08:09:36.240Z,101294.97
2019-01-25T08:10:37.371Z,101294.14
2019-01-25T08:11:38.567Z,101297.17
2019-01-25T08:12:39.693Z,101296.66
2019-01-25T08:13:40.810Z,101292.29
2019-01-25T08:14:42.022Z,101286.92
2019-01-25T08:15:43.323Z,101289.47
2019-01-25T08:16:44.624Z,101286.92
2019-01-25T08:17:45.986Z,101290.12
2019-01-25T08:18:47.107Z,101287.08
2019-01-25T08:19:48.225Z,101295.97
2019-01-25T08:20:49.342Z,101282.55
2019-01-25T08:21:50.445Z,101294.14
2019-01-25T08:22:51.616Z,101286.57
2019-01-25T08:23:52.715Z,101288.91
2019-01-25T08:24:53.843Z,101291.11
2019-01-25T08:25:54.961Z,101291.94
2019-01-25T08:26:56.064Z,101290.59
2019-01-25T08:27:57.303Z,101294.27
2019-01-25T08:28:58.411Z,101287.22
2019-01-25T08:29:59.630Z,101298.65
2019-01-25T08:31:00.775Z,101290.12
2019-01-25T08:32:01.974Z,101297.17
2019-01-25T08:33:03.269Z,101295.32
2019-01-25T08:34:04.496Z,101289.95
2019-01-25T08:35:08.349Z,101288.61
2019-01-25T08:36:09.477Z,101285.10
2019-01-25T08:37:10.585Z,101288.61
2019-01-25T08:38:11.830Z,101287.14
2019-01-25T08:39:12.941Z,101290.30
2019-01-25T08:40:17.485Z,101286.28
2019-01-25T08:41:18.700Z,101286.62
2019-01-25T08:42:19.835Z,101292.98
2019-01-25T08:43:20.941Z,101286.28
2019-01-25T08:44:22.056Z,101284.94
2019-01-25T08:45:23.170Z,101246.34
2019-01-25T08:46:24.288Z,101293.98
2019-01-25T08:47:25.402Z,101289.95
2019-01-25T08:48:26.666Z,101297.52
2019-01-25T08:49:27.732Z,101296.66
2019-01-25T08:50:29.083Z,101295.32
2019-01-25T08:51:33.094Z,101291.81
2019-01-25T08:52:34.217Z,101292.29
2019-01-25T08:53:35.613Z,101291.81
2019-01-25T08:54:36.702Z,101293.63
2019-01-25T08:55:37.825Z,101299.52
2019-01-25T08:56:39.048Z,101294.97
2019-01-25T08:57:40.149Z,101294.63
2019-01-25T08:58:41.319Z,101292.58
2019-01-25T08:59:45.518Z,101291.11
2019-01-25T09:00:45.629Z,101289.42
2019-01-25T09:01:46.745Z,101291.75
2019-01-25T09:02:47.857Z,101289.55
2019-01-25T09:03:49.017Z,101292.23
2019-01-25T09:04:50.408Z,101295.27
2019-01-25T09:05:51.560Z,101297.25
2019-01-25T09:06:52.676Z,101290.19
2019-01-25T09:07:53.792Z,101298.59
2019-01-25T09:08:55.052Z,101302.78
2019-01-25T09:09:56.165Z,101299.59
2019-01-25T09:10:57.284Z,101300.92
2019-01-25T09:11:58.391Z,101300.92
2019-01-25T09:12:59.509Z,101306.30
2019-01-25T09:14:00.665Z,101300.92
2019-01-25T09:15:01.781Z,101294.73
2019-01-25T09:16:02.993Z,101295.21
2019-01-25T09:17:04.101Z,101299.59
2019-01-25T09:18:05.308Z,101298.59
2019-01-25T09:19:06.537Z,101301.28
2019-01-25T09:20:14.615Z,101300.80
2019-01-25T09:21:15.933Z,101294.57
2019-01-25T09:22:17.568Z,101293.58
2019-01-25T09:23:18.675Z,101291.88
2019-01-25T09:24:19.829Z,101290.06
2019-01-25T09:25:21.155Z,101294.92
2019-01-25T09:26:22.265Z,101290.41
2019-01-25T09:27:23.915Z,101292.75
2019-01-25T09:28:25.194Z,101291.41
2019-01-25T09:29:26.430Z,101288.20
2019-01-25T09:30:27.540Z,101290.89
2019-01-25T09:31:28.648Z,101289.55
2019-01-25T09:32:29.770Z,101286.03
2019-01-25T09:33:30.873Z,101285.52
2019-01-25T09:34:32.028Z,101287.22
2019-01-25T09:35:33.253Z,101286.39
2019-01-25T09:36:34.377Z,101288.91
2019-01-25T09:37:35.590Z,101289.90
2019-01-25T09:38:36.701Z,101286.73
2019-01-25T09:39:37.832Z,101293.58
2019-01-25T09:40:38.942Z,101291.23
2019-01-25T09:41:40.135Z,101297.95
2019-01-25T09:42:41.248Z,101287.73
2019-01-25T09:43:42.366Z,101292.58
2019-01-25T09:44:43.596Z,101294.92
2019-01-25T09:45:44.703Z,101293.09
2019-01-25T09:46:45.824Z,101292.23
2019-01-25T09:47:47.038Z,101296.26
2019-01-25T09:48:48.150Z,101298.47
2019-01-25T09:49:49.281Z,101296.26
2019-01-25T09:50:52.841Z,101299.29
2019-01-25T09:51:53.540Z,101297.95
2019-01-25T09:52:54.950Z,101293.92
2019-01-25T09:53:56.164Z,101293.45
2019-01-25T09:54:57.324Z,101292.58
2019-01-25T09:55:58.623Z,101292.94
2019-01-25T09:56:59.737Z,101296.95
2019-01-25T09:58:10.484Z,101280.97
2019-01-25T09:59:11.595Z,101293.92
2019-01-25T10:00:31.584Z,101296.61
2019-01-25T10:01:32.699Z,101296.61
2019-01-25T10:02:33.923Z,101296.26
2019-01-25T10:03:35.144Z,101293.58
2019-01-25T10:04:36.262Z,101294.57
2019-01-25T10:05:37.387Z,101284.83
2019-01-25T10:06:38.504Z,101293.23
2019-01-25T10:07:39.616Z,101284.48
2019-01-25T10:08:40.851Z,101285.34
2019-01-25T10:09:41.984Z,101295.08
2019-01-25T10:10:43.416Z,101292.88
2019-01-25T10:11:44.534Z,101291.05
2019-01-25T10:12:45.741Z,101288.85
2019-01-25T10:13:46.858Z,101290.19
2019-01-25T10:14:47.977Z,101287.86
2019-01-25T10:15:49.105Z,101285.17
2019-01-25T10:16:50.229Z,101286.52
2019-01-25T10:17:51.344Z,101286.87
2019-01-25T10:18:52.732Z,101287.38
2019-01-25T10:19:53.848Z,101286.87
2019-01-25T10:20:55.160Z,101283.19
2019-01-25T10:21:56.377Z,101280.50
2019-01-25T10:22:57.500Z,101283.70
2019-01-25T10:23:59.169Z,101281.84
2019-01-25T10:25:00.281Z,101285.88
2019-01-25T10:26:01.548Z,101288.91
2019-01-25T10:27:03.153Z,101284.41
2019-01-25T10:28:04.256Z,101282.71
2019-01-25T10:29:05.370Z,101283.54
2019-01-25T10:30:10.080Z,101288.91
2019-01-25T10:31:11.208Z,101283.06
2019-01-25T10:32:12.516Z,101288.42
2019-01-25T10:33:13.633Z,101287.91
2019-01-25T10:34:14.746Z,101285.23
2019-01-25T10:35:16.052Z,101280.38
2019-01-25T10:36:17.272Z,101286.92
2019-01-25T10:37:18.380Z,101277.69
2019-01-25T10:38:19.494Z,101279.86
2019-01-25T10:39:20.608Z,101283.89
2019-01-25T10:40:22.420Z,101274.49
2019-01-25T10:41:23.592Z,101281.72
2019-01-25T10:42:24.712Z,101278.17
2019-01-25T10:43:25.828Z,101279.86
2019-01-25T10:44:26.944Z,101279.52
2019-01-25T10:45:34.261Z,101280.21
2019-01-25T10:46:35.407Z,101278.04
2019-01-25T10:47:36.515Z,101270.81
2019-01-25T10:48:37.628Z,101278.87
2019-01-25T10:49:38.741Z,101279.73
2019-01-25T10:50:39.856Z,101274.84
2019-01-25T10:51:41.012Z,101269.47
2019-01-25T10:52:42.141Z,101276.05
2019-01-25T10:53:43.259Z,101278.58
2019-01-25T10:54:44.496Z,101279.56
2019-01-25T10:55:45.713Z,101273.20
2019-01-25T10:56:46.865Z,101278.09
2019-01-25T10:57:47.971Z,101275.76
2019-01-25T10:58:49.079Z,101277.23
2019-01-25T10:59:50.192Z,101270.39
2019-01-25T11:00:51.501Z,101276.59
2019-01-25T11:01:52.763Z,101226.76
2019-01-25T11:02:58.407Z,101275.24
2019-01-25T11:03:56.900Z,101270.22
2019-01-25T11:04:58.112Z,101269.75
2019-01-25T11:05:59.224Z,101267.06
2019-01-25T11:07:00.355Z,101267.06
2019-01-25T11:08:01.460Z,101265.20
2019-01-25T11:09:05.582Z,101270.92
2019-01-25T11:10:08.132Z,101266.89
2019-01-25T11:11:09.244Z,101261.53
2019-01-25T11:12:10.372Z,101269.09
2019-01-25T11:13:11.486Z,101268.23
2019-01-25T11:14:12.604Z,101262.39
2019-01-25T11:15:16.836Z,101266.89
2019-01-25T11:16:17.946Z,101261.53
2019-01-25T11:17:19.178Z,101272.27
2019-01-25T11:18:20.403Z,101262.52
2019-01-25T11:19:21.515Z,101256.75
2019-01-25T11:20:23.917Z,101265.55
2019-01-25T11:21:25.138Z,101265.55
2019-01-25T11:22:26.287Z,101261.17
2019-01-25T11:23:27.400Z,101261.17
2019-01-25T11:24:28.518Z,101256.80
2019-01-25T11:25:32.636Z,101262.52
2019-01-25T11:26:33.855Z,101258.02
2019-01-25T11:27:35.092Z,101259.84
2019-01-25T11:28:36.216Z,101259.48
2019-01-25T11:29:37.376Z,101254.13
2019-01-25T11:30:38.544Z,101256.80
2019-01-25T11:31:39.661Z,101252.78
2019-01-25T11:32:40.932Z,101207.98
2019-01-25T11:33:42.036Z,101253.77
2019-01-25T11:34:43.252Z,101253.77
2019-01-25T11:35:44.364Z,101251.09
2019-01-25T11:36:45.586Z,101248.05
2019-01-25T11:37:46.748Z,101253.94
2019-01-25T11:38:47.855Z,101250.39
2019-01-25T11:39:49.394Z,101252.73
2019-01-25T11:40:50.633Z,101243.50
2019-01-25T11:41:51.788Z,101244.97